x

Virginia Beach 64 Nm East Of Virginia Beach, Va (44014) Wave Buoy

4:50 - Mon 6th Jul 2015 All times are EDT. -4 hours from GMT.

  • Sig Wave height 2.6ft
  • Swell Direction
  • Peak Period 9s
  • Average Period 5s
  • Wind
    4mph, 7mph gusts
  • Sea Temp 77°f
  • Ar Temp 77°f
  • Sea Pressure 1019.5mb
  • Virginia Beach 64 Nm East Of Virginia Beach, Va
  • Virginia Beach 64 Nm East Of Virginia Beach, Va

More Historic Weather Station data

Upgrade to MSW Pro to gain access to the past 30 days of data for over 8000 Wavebouys and Weather Stations around the globe.

Join Pro

Comparision Forecast

View Surf forecast
   
Seg 07/06 4:50 2.5ft 9s 5s 4 7 mph 1019.5mb 77f 77f
3:50 2.5ft 6s 5s 9
mph
1019.2mb 77f 78f
2:50 2.5ft 8s 5s 9 11 mph 1019.4mb 77f 78f
1:50 2.5ft 8s 6s 9 11 mph 1019.4mb 77f 78f
12:50 2.5ft 9s 6s 9 11 mph 1019.6mb 77f 78f
Dom 07/05 11:50 2.5ft 6s 6s 11 13 mph 1019.9mb 78f 78f
10:50 2.5ft 9s 6s 9 11 mph 1020.3mb 78f 78f
9:50 3ft 6s 6s 7 9 mph 1019.8mb 78f 78f
8:50 2.5ft 6s 6s 9
mph
1019.3mb 78f 78f
7:50 3ft 6s 6s 7 9 mph 1019.4mb 78f 78f
6:50 3ft 6s 6s 9
mph
1019.2mb 78f 79f
5:50 3.5ft 6s 5s 7 9 mph 1019.2mb 78f 78f
4:50 3.5ft 8s 5s 7 9 mph 1019.5mb 77f 78f
3:50 3.5ft 7s 5s 4 7 mph 1019.9mb 78f 78f
2:50 4ft 6s 6s 7
mph
1019.8mb 78f 77f
1:50 4ft 6s 6s 7
mph
1020.1mb 78f 77f
12:50 3.5ft 6s 6s 7
mph
1020.5mb 78f 76f
11:50 3.5ft 7s 6s 7
mph
1020.5mb 78f 76f
10:50 3.5ft 7s 6s 9
mph
1020.3mb 77f 76f
9:50 3.5ft 7s 6s 2 4 mph 1019.8mb 77f 77f
8:50 3.5ft 7s 6s 4
mph
1019.2mb 76f 77f
7:50 3.5ft 7s 6s 4
mph
1019mb 76f 76f
6:50 3.5ft 7s 6s 9 13 mph 1018.6mb 76f 77f
5:50 4.5ft 7s 6s 4 7 mph 1017.6mb 76f 76f
4:50 4.5ft 7s 6s 9
mph
1016.9mb 76f 76f
3:50 5ft 7s 6s 7 9 mph 1016.6mb 76f 76f
2:50 4.5ft 7s 5s 9 11 mph 1016.5mb 76f 77f
1:50 4.5ft 7s 5s 11 13 mph 1016.4mb 76f 77f
12:50 4.5ft 7s 5s 16 18 mph 1016.3mb 76f 78f
Sáb 07/04 11:50 4.5ft 7s 5s 13 16 mph 1015.6mb 76f 78f
10:50 5.5ft 7s 5s 13 18 mph 1015mb 76f 78f
9:50 5ft 7s 5s 16 20 mph 1014.6mb 77f 78f
8:50 5ft 7s 6s 13 16 mph 1013.9mb 77f 78f
7:50 5.5ft 8s 6s 18 20 mph 1013.4mb 76f 78f
6:50 5ft 8s 6s 18 20 mph 1013.3mb 77f 78f
5:50 5ft 8s 6s 16 18 mph 1013.2mb 77f 78f
4:50 5ft 8s 6s 9 11 mph 1013.4mb 77f 78f
3:50 4.5ft 8s 5s 7
mph
1013.5mb 77f 78f
2:50 5ft 8s 6s 9 11 mph 1013.8mb 76f 78f
1:50 6ft 8s 6s 11 13 mph 1013.4mb 76f 77f
12:50 6ft 8s 5s 16 18 mph 1013.3mb 76f 77f
11:50 6.5ft 8s 5s 20 25 mph 1012.7mb 76f 77f
10:50 7ft 7s 5s 25 29 mph 1012.1mb 76f 76f
9:50 6.5ft 8s 5s 22 29 mph 1011.9mb 76f 77f
8:50 6ft 5s 5s 22 27 mph 1011.6mb 76f 77f
7:50 5.5ft 7s 5s 25 27 mph 1011.4mb 76f 77f
6:50 4.5ft 7s 5s 20 25 mph 1010.7mb 76f 77f
5:50 4.5ft 7s 5s 18 22 mph 1010.3mb 76f 78f
4:50 3.5ft 8s 5s 16 20 mph 1010mb 76f 77f
3:50 4ft 7s 6s 11 16 mph 1010.6mb 77f 78f
2:50 4ft 8s 6s 11
mph
1010.9mb 77f 77f
1:50 4ft 8s 5s 11
mph
1011.4mb 77f 77f
12:50 3.5ft 8s 5s 16 18 mph 1011.8mb 77f 77f
Sex 07/03 11:50 4ft 8s 6s 13 16 mph 1012.3mb 77f 76f
10:50 3.5ft 8s 5s 13 18 mph 1012.8mb 77f 77f
9:50 3.5ft 8s 5s 13 16 mph 1013.2mb 77f 77f
8:50 3.5ft 8s 6s 13 18 mph 1013.1mb 78f 77f
7:50 3ft 8s 5s 11 13 mph 1013.2mb 78f 77f
6:50 3.5ft 8s 6s 9 11 mph 1013.9mb 78f 76f
5:50 3.5ft 7s 5s 11 13 mph 1013.9mb 78f 76f
4:50 3.5ft 7s 5s 7 9 mph 1014.3mb 79f 76f
3:50 4ft 7s 5s 7 9 mph 1014.4mb 79f 76f
2:50 4ft 7s 5s 4 7 mph 1014.7mb 78f 76f
1:50 4.5ft 7s 6s 4 7 mph 1014.9mb 78f 75f
12:50 5ft 6s 6s 4 7 mph 1015.3mb 77f 75f
11:50 4.5ft 7s 6s 7 9 mph 1015mb 76f 75f
10:50 4.5ft 7s 6s 7 9 mph 1014.7mb 76f 75f
9:50 4.5ft 7s 6s 9 11 mph 1014.2mb 76f 74f
8:50 5ft 7s 6s 11 13 mph 1014.3mb 77f 74f
7:50 4.5ft 8s 5s 13 16 mph 1013.9mb 77f 74f
6:50 4.5ft 7s 6s 16 18 mph 1012.9mb 76f 74f
5:50 4.5ft 7s 6s 16 18 mph 1012.1mb 76f 74f
4:50 4.5ft 8s 6s 11 18 mph 1010.9mb 77f 75f
3:50 5ft 7s 6s 11 13 mph 1011.1mb 77f 76f
2:50 4.5ft 8s 6s 11 13 mph 1010.8mb 77f 75f
1:50 4.5ft 7s 6s 13 18 mph 1011.8mb 77f 76f
12:50 4.5ft 7s 6s 13 16 mph 1012.2mb 77f 76f
Qui 07/02 11:50 4.5ft 7s 5s 11 13 mph 1011.6mb 77f 76f
10:50 4.5ft 8s 5s 9
mph
1011.1mb 77f 75f
9:50 5.5ft 6s 5s 18 20 mph 1011.1mb 77f 74f
8:50 4.5ft 5s 5s 22 27 mph 1009.8mb 77f 78f
7:50 5ft 5s 5s 20 25 mph 1009.4mb 77f 79f
6:50 5ft 5s 5s 20 25 mph 1009.6mb 77f 80f
5:50 4.5ft 6s 5s 20 25 mph 1009.6mb 77f 79f
4:50 4.5ft 8s 5s 20 25 mph 1010.1mb 77f 80f
3:50 5ft 8s 5s 20 25 mph 1010.4mb 77f 79f
2:50 5ft 8s 5s 18 20 mph 1011mb 77f 79f
1:50 4.5ft 8s 5s 18 20 mph 1011.5mb 77f 79f
12:50 5ft 8s 6s 16 20 mph 1011.7mb 77f 79f
11:50 4.5ft 8s 6s 13
mph
1012.1mb 77f 78f
10:50 5ft 8s 6s 13 18 mph 1012.7mb 77f 78f
9:50 4.5ft 8s 6s 16 18 mph 1012.8mb 77f 78f